createdAt,value
2023-03-25T00:01:27.498Z,19.86
2023-03-25T00:03:57.171Z,19.92
2023-03-25T00:06:26.827Z,19.87
2023-03-25T00:08:57.355Z,19.87
2023-03-25T00:11:27.150Z,19.92
2023-03-25T00:13:56.896Z,19.95
2023-03-25T00:16:26.570Z,19.86
2023-03-25T00:18:56.262Z,19.93
2023-03-25T00:21:26.034Z,19.89
2023-03-25T00:23:55.698Z,19.94
2023-03-25T00:26:25.350Z,19.94
2023-03-25T00:28:54.998Z,19.91
2023-03-25T00:31:24.630Z,19.94
2023-03-25T00:34:00.120Z,19.95
2023-03-25T00:36:29.781Z,19.95
2023-03-25T00:38:59.466Z,19.96
2023-03-25T00:41:29.176Z,20.00
2023-03-25T00:44:00.033Z,20.00
2023-03-25T00:46:31.548Z,20.03
2023-03-25T00:49:01.640Z,20.00
2023-03-25T00:51:32.740Z,20.00
2023-03-25T00:54:02.448Z,20.01
2023-03-25T00:56:32.392Z,20.01
2023-03-25T00:59:02.290Z,20.02
2023-03-25T01:01:32.057Z,20.00
2023-03-25T01:04:02.096Z,20.04
2023-03-25T01:06:36.845Z,20.04
2023-03-25T01:09:08.121Z,20.07
2023-03-25T01:11:39.760Z,20.09
2023-03-25T01:14:11.948Z,20.02
2023-03-25T01:16:41.804Z,20.05
2023-03-25T01:19:11.782Z,20.08
2023-03-25T01:21:42.349Z,20.13
2023-03-25T01:24:14.126Z,20.12
2023-03-25T01:26:45.238Z,20.08
2023-03-25T01:29:15.951Z,20.09
2023-03-25T01:31:45.802Z,20.08
2023-03-25T01:34:15.922Z,20.08
2023-03-25T01:36:48.119Z,20.08
2023-03-25T01:39:20.185Z,20.08
2023-03-25T01:41:51.763Z,20.08
2023-03-25T01:44:24.287Z,20.06
2023-03-25T01:46:54.735Z,20.08
2023-03-25T01:49:28.410Z,20.16
2023-03-25T01:52:00.533Z,20.13
2023-03-25T01:54:30.203Z,20.16
2023-03-25T01:56:59.903Z,20.16
2023-03-25T01:59:30.110Z,20.15
2023-03-25T02:02:00.570Z,20.16
2023-03-25T02:04:40.494Z,20.17
2023-03-25T02:07:10.165Z,20.19
2023-03-25T02:09:40.354Z,20.22
2023-03-25T02:12:10.071Z,20.25
2023-03-25T02:14:40.640Z,20.26
2023-03-25T02:17:20.693Z,20.23
2023-03-25T02:19:56.474Z,20.22
2023-03-25T02:22:27.275Z,20.20
2023-03-25T02:25:09.029Z,20.21
2023-03-25T02:27:59.253Z,20.26
2023-03-25T02:30:40.890Z,20.21
2023-03-25T02:33:44.055Z,20.22
2023-03-25T02:36:50.299Z,20.24
2023-03-25T02:39:43.311Z,20.23
2023-03-25T02:42:34.167Z,20.35
2023-03-25T02:45:14.007Z,20.35
2023-03-25T02:47:49.740Z,20.43
2023-03-25T02:50:24.297Z,20.52
2023-03-25T02:52:56.072Z,20.56
2023-03-25T02:55:27.022Z,20.65
2023-03-25T02:57:58.705Z,20.68
2023-03-25T03:00:30.350Z,20.76
2023-03-25T03:03:02.118Z,20.76
2023-03-25T03:05:32.773Z,20.76
2023-03-25T03:08:20.476Z,20.81
2023-03-25T03:11:10.281Z,20.88
2023-03-25T03:13:47.958Z,20.88
2023-03-25T03:16:41.303Z,20.92
2023-03-25T03:19:16.825Z,20.95
2023-03-25T03:21:59.117Z,20.97
2023-03-25T03:24:35.666Z,20.99
2023-03-25T03:27:16.413Z,21.03
2023-03-25T03:29:56.183Z,21.03
2023-03-25T03:32:29.897Z,21.05
2023-03-25T03:35:24.541Z,21.02
2023-03-25T03:38:05.432Z,21.02
2023-03-25T03:40:35.081Z,21.01
2023-03-25T03:43:10.122Z,21.00
2023-03-25T03:45:51.666Z,20.99
2023-03-25T03:48:25.503Z,21.01
2023-03-25T03:51:09.446Z,21.04
2023-03-25T03:53:47.391Z,21.05
2023-03-25T03:56:25.496Z,21.05
2023-03-25T03:58:56.122Z,21.13
2023-03-25T04:01:35.334Z,21.11
2023-03-25T04:04:09.314Z,21.12
2023-03-25T04:07:02.709Z,21.12
2023-03-25T04:09:56.424Z,21.12
2023-03-25T04:12:29.902Z,21.11
2023-03-25T04:15:01.958Z,21.13
2023-03-25T04:17:31.751Z,21.16
2023-03-25T04:20:03.153Z,21.18
2023-03-25T04:22:32.769Z,21.15
2023-03-25T04:25:02.597Z,21.19
2023-03-25T04:27:34.194Z,21.21
2023-03-25T04:30:04.664Z,21.21
2023-03-25T04:32:34.319Z,21.22
2023-03-25T04:35:07.902Z,21.22
2023-03-25T04:37:38.580Z,21.23
2023-03-25T04:40:09.826Z,21.23
2023-03-25T04:42:39.483Z,21.24
2023-03-25T04:45:09.485Z,21.23
2023-03-25T04:47:39.299Z,21.26
2023-03-25T04:50:09.514Z,21.27
2023-03-25T04:52:39.745Z,21.25
2023-03-25T04:55:10.142Z,21.27
2023-03-25T04:57:39.821Z,21.28
2023-03-25T05:00:10.728Z,21.28
2023-03-25T05:02:40.448Z,21.28
2023-03-25T05:05:10.329Z,21.30
2023-03-25T05:07:39.978Z,21.30
2023-03-25T05:10:10.888Z,21.30
2023-03-25T05:12:40.529Z,21.31
2023-03-25T05:15:11.373Z,21.32
2023-03-25T05:17:42.002Z,21.32
2023-03-25T05:20:12.213Z,21.30
2023-03-25T05:22:42.113Z,21.30
2023-03-25T05:25:12.615Z,21.31
2023-03-25T05:27:42.230Z,21.31
2023-03-25T05:30:12.777Z,21.30
2023-03-25T05:32:42.677Z,21.30
2023-03-25T05:35:12.612Z,21.29
2023-03-25T05:37:42.288Z,21.30
2023-03-25T05:40:15.281Z,21.30
2023-03-25T05:42:50.240Z,21.30
2023-03-25T05:45:19.934Z,21.30
2023-03-25T05:47:49.780Z,21.29
2023-03-25T05:50:19.572Z,21.29
2023-03-25T05:52:51.176Z,21.31
2023-03-25T05:55:23.140Z,21.29
2023-03-25T05:57:52.794Z,21.30
2023-03-25T06:00:26.067Z,21.29
2023-03-25T06:02:56.336Z,21.30
2023-03-25T06:05:26.343Z,21.29
2023-03-25T06:07:57.773Z,21.29
2023-03-25T06:10:27.396Z,21.29
2023-03-25T06:12:57.091Z,21.30
2023-03-25T06:15:34.889Z,21.30
2023-03-25T06:18:04.596Z,21.30
2023-03-25T06:20:35.152Z,21.30
2023-03-25T06:23:04.871Z,21.30
2023-03-25T06:25:34.517Z,21.27
2023-03-25T06:28:05.603Z,21.28
2023-03-25T06:30:35.292Z,21.26
2023-03-25T06:33:07.538Z,21.28
2023-03-25T06:35:37.372Z,21.27
2023-03-25T06:38:07.094Z,21.26
2023-03-25T06:40:36.757Z,21.25
2023-03-25T06:43:07.688Z,21.26
2023-03-25T06:45:37.366Z,21.26
2023-03-25T06:48:07.292Z,21.25
2023-03-25T06:50:37.248Z,21.25
2023-03-25T06:53:07.126Z,21.24
2023-03-25T06:55:37.003Z,21.23
2023-03-25T06:58:07.166Z,21.24
2023-03-25T07:00:36.999Z,21.24
2023-03-25T07:03:06.857Z,21.22
2023-03-25T07:05:36.746Z,21.23
2023-03-25T07:08:06.737Z,21.23
2023-03-25T07:10:36.386Z,21.22
2023-03-25T07:13:06.151Z,21.24
2023-03-25T07:15:35.736Z,21.23
2023-03-25T07:18:05.483Z,21.22
2023-03-25T07:20:35.185Z,21.23
2023-03-25T07:23:04.845Z,21.24
2023-03-25T07:25:34.499Z,21.23
2023-03-25T07:28:04.179Z,21.23
2023-03-25T07:30:33.790Z,21.25
2023-03-25T07:33:03.570Z,21.24
2023-03-25T07:35:33.310Z,21.24
2023-03-25T07:38:02.970Z,21.23
2023-03-25T07:40:32.709Z,21.23
2023-03-25T07:43:02.386Z,21.22
2023-03-25T07:45:43.725Z,21.23
2023-03-25T07:48:17.808Z,21.23
2023-03-25T07:50:47.615Z,21.23
2023-03-25T07:53:17.232Z,21.24
2023-03-25T07:55:52.904Z,21.23
2023-03-25T07:58:23.106Z,21.21
2023-03-25T08:00:52.775Z,21.22
2023-03-25T08:03:22.828Z,21.22
2023-03-25T08:05:52.714Z,21.19
2023-03-25T08:08:22.534Z,21.20
2023-03-25T08:10:53.887Z,21.19
2023-03-25T08:13:23.706Z,21.18
2023-03-25T08:15:53.967Z,21.16
2023-03-25T08:18:23.773Z,21.16
2023-03-25T08:20:53.529Z,21.17
2023-03-25T08:23:24.030Z,21.13
2023-03-25T08:25:54.921Z,21.12
2023-03-25T08:28:24.834Z,21.11
2023-03-25T08:30:57.717Z,21.09
2023-03-25T08:33:45.478Z,21.07
2023-03-25T08:36:15.831Z,21.03
2023-03-25T08:38:45.434Z,21.02
2023-03-25T08:41:15.568Z,21.08
2023-03-25T08:43:45.323Z,21.07
2023-03-25T08:46:15.338Z,21.05
2023-03-25T08:48:46.306Z,21.03
2023-03-25T08:51:16.868Z,20.98
2023-03-25T08:53:46.528Z,20.96
2023-03-25T08:56:16.378Z,20.97
2023-03-25T08:58:46.094Z,20.91
2023-03-25T09:01:15.794Z,20.97
2023-03-25T09:03:45.499Z,20.95
2023-03-25T09:06:15.174Z,20.98
2023-03-25T09:08:44.874Z,20.99
2023-03-25T09:11:30.178Z,20.99
2023-03-25T09:14:06.456Z,21.02
2023-03-25T09:16:36.184Z,21.01
2023-03-25T09:19:05.936Z,21.04
2023-03-25T09:21:35.596Z,20.95
2023-03-25T09:24:05.293Z,21.01
2023-03-25T09:26:35.987Z,21.02
2023-03-25T09:29:05.832Z,20.99
2023-03-25T09:31:35.518Z,20.99
2023-03-25T09:34:05.226Z,20.94
2023-03-25T09:36:34.830Z,20.92
2023-03-25T09:39:04.808Z,20.97
2023-03-25T09:42:01.567Z,20.92
2023-03-25T09:44:54.190Z,20.93
2023-03-25T09:47:23.901Z,20.92
2023-03-25T09:49:56.471Z,20.94
2023-03-25T09:52:59.454Z,20.90
2023-03-25T09:55:30.869Z,20.90
2023-03-25T09:58:25.312Z,20.89
2023-03-25T10:00:58.993Z,20.88
2023-03-25T10:04:03.038Z,20.81
2023-03-25T10:06:34.652Z,20.85
2023-03-25T10:09:05.223Z,20.82
2023-03-25T10:12:09.823Z,20.77
2023-03-25T10:15:00.827Z,20.74
2023-03-25T10:17:55.977Z,20.70
2023-03-25T10:20:39.367Z,20.65
2023-03-25T10:23:29.368Z,20.69
2023-03-25T10:26:02.134Z,20.65
2023-03-25T10:28:35.124Z,20.62
2023-03-25T10:31:04.722Z,20.58
2023-03-25T10:33:43.445Z,20.55
2023-03-25T10:36:19.607Z,20.55
2023-03-25T10:38:50.559Z,20.53
2023-03-25T10:41:27.029Z,20.52
2023-03-25T10:43:57.093Z,20.52
2023-03-25T10:46:48.354Z,20.57
2023-03-25T10:49:22.660Z,20.51
2023-03-25T10:51:56.465Z,20.56
2023-03-25T10:54:31.517Z,20.55
2023-03-25T10:57:01.958Z,20.51
2023-03-25T10:59:44.833Z,20.56
2023-03-25T11:02:24.073Z,20.47
2023-03-25T11:04:56.901Z,20.47
2023-03-25T11:07:49.901Z,20.50
2023-03-25T11:10:27.357Z,20.55
2023-03-25T11:12:59.876Z,20.51
2023-03-25T11:15:39.542Z,20.49
2023-03-25T11:18:15.469Z,20.50
2023-03-25T11:21:10.832Z,20.53
2023-03-25T11:23:50.330Z,20.48
2023-03-25T11:26:23.040Z,20.45
2023-03-25T11:29:03.820Z,20.47
2023-03-25T11:31:37.438Z,20.42
2023-03-25T11:34:13.383Z,20.38
2023-03-25T11:37:03.855Z,20.36
2023-03-25T11:39:41.202Z,20.37
2023-03-25T11:42:44.353Z,20.35
2023-03-25T11:45:37.522Z,20.36
2023-03-25T11:48:20.611Z,20.33
2023-03-25T11:50:58.143Z,20.31
2023-03-25T11:53:28.689Z,20.33
2023-03-25T11:56:06.200Z,20.32
2023-03-25T11:58:40.056Z,20.35
2023-03-25T12:01:22.196Z,20.31
2023-03-25T12:03:52.879Z,20.26
2023-03-25T12:06:23.885Z,20.28
2023-03-25T12:09:00.138Z,20.30
2023-03-25T12:11:31.778Z,20.27
2023-03-25T12:14:32.378Z,20.29
2023-03-25T12:17:04.677Z,20.31
2023-03-25T12:19:47.666Z,20.30
2023-03-25T12:22:40.774Z,20.30
2023-03-25T12:25:35.400Z,20.30
2023-03-25T12:28:15.988Z,20.28
2023-03-25T12:31:05.744Z,20.28
2023-03-25T12:33:42.069Z,20.24
2023-03-25T12:36:32.710Z,20.26
2023-03-25T12:39:11.523Z,20.24
2023-03-25T12:41:58.492Z,20.16
2023-03-25T12:44:46.368Z,20.24
2023-03-25T12:47:17.803Z,20.22
2023-03-25T12:50:12.583Z,20.26
2023-03-25T12:53:09.599Z,20.24
2023-03-25T12:55:57.275Z,20.26
2023-03-25T12:58:48.945Z,20.23
2023-03-25T13:01:37.894Z,20.26
2023-03-25T13:04:36.158Z,20.25
2023-03-25T13:07:06.997Z,20.20
2023-03-25T13:09:44.011Z,20.28
2023-03-25T13:12:13.555Z,20.26
2023-03-25T13:14:51.042Z,20.18
2023-03-25T13:17:27.468Z,20.22
2023-03-25T13:19:58.837Z,20.17
2023-03-25T13:22:50.308Z,20.23
2023-03-25T13:25:28.190Z,20.19
2023-03-25T13:27:59.464Z,20.18
2023-03-25T13:30:38.489Z,20.15
2023-03-25T13:33:22.018Z,20.18
2023-03-25T13:35:59.640Z,20.15
2023-03-25T13:38:37.269Z,20.12
2023-03-25T13:41:16.927Z,20.09
2023-03-25T13:43:54.894Z,20.11
2023-03-25T13:46:27.849Z,20.12
2023-03-25T13:49:16.961Z,20.09
2023-03-25T13:51:46.658Z,20.11
2023-03-25T13:54:56.445Z,20.09
2023-03-25T13:57:28.851Z,20.10
2023-03-25T14:00:25.190Z,20.09
2023-03-25T14:03:14.285Z,20.01
2023-03-25T14:06:00.072Z,20.06
2023-03-25T14:08:36.895Z,20.01
2023-03-25T14:11:06.582Z,20.05
2023-03-25T14:13:39.176Z,20.03
2023-03-25T14:16:16.838Z,20.06
2023-03-25T14:19:10.954Z,20.08
2023-03-25T14:21:41.081Z,20.06
2023-03-25T14:24:15.039Z,20.06
2023-03-25T14:26:59.463Z,20.04
2023-03-25T14:30:06.186Z,20.03
2023-03-25T14:32:42.413Z,20.01
2023-03-25T14:35:36.648Z,20.03
2023-03-25T14:38:09.316Z,20.10
2023-03-25T14:40:59.050Z,20.11
2023-03-25T14:43:39.599Z,20.05
2023-03-25T14:46:15.905Z,20.03
2023-03-25T14:48:47.652Z,20.03
2023-03-25T14:51:43.990Z,20.01
2023-03-25T14:54:32.637Z,19.98
2023-03-25T14:57:27.194Z,20.02
2023-03-25T15:00:11.491Z,20.00
2023-03-25T15:02:41.477Z,20.01
2023-03-25T15:05:14.370Z,19.98
2023-03-25T15:08:08.803Z,20.03
2023-03-25T15:10:45.731Z,19.97
2023-03-25T15:13:28.795Z,19.99
2023-03-25T15:16:18.812Z,19.94
2023-03-25T15:18:51.054Z,19.95
2023-03-25T15:21:20.826Z,19.99
2023-03-25T15:24:02.305Z,19.94
2023-03-25T15:26:40.726Z,19.96
2023-03-25T15:29:16.398Z,19.95
2023-03-25T15:31:49.837Z,19.85
2023-03-25T15:34:28.098Z,19.83
2023-03-25T15:37:11.358Z,19.92
2023-03-25T15:40:03.879Z,19.83
2023-03-25T15:42:48.309Z,19.82
2023-03-25T15:45:36.156Z,19.82
2023-03-25T15:48:29.535Z,19.82
2023-03-25T15:51:20.521Z,19.82
2023-03-25T15:54:10.184Z,19.80
2023-03-25T15:56:43.932Z,19.84
2023-03-25T15:59:31.729Z,19.82
2023-03-25T16:02:02.448Z,19.80
2023-03-25T16:04:35.077Z,19.78
2023-03-25T16:07:04.709Z,19.75
2023-03-25T16:09:35.098Z,19.73
2023-03-25T16:12:05.126Z,19.76
2023-03-25T16:14:36.214Z,19.73
2023-03-25T16:17:09.097Z,19.77
2023-03-25T16:19:47.676Z,19.81
2023-03-25T16:22:28.381Z,19.79
2023-03-25T16:25:03.617Z,19.80
2023-03-25T16:27:34.301Z,19.78
2023-03-25T16:30:04.126Z,19.78
2023-03-25T16:32:35.263Z,19.81
2023-03-25T16:35:06.315Z,19.80
2023-03-25T16:37:36.228Z,19.81
2023-03-25T16:40:07.726Z,19.82
2023-03-25T16:42:38.751Z,19.87
2023-03-25T16:45:10.136Z,19.80
2023-03-25T16:47:39.954Z,19.73
2023-03-25T16:50:10.332Z,19.74
2023-03-25T16:52:39.969Z,19.74
2023-03-25T16:55:37.388Z,19.77
2023-03-25T16:58:07.634Z,19.68
2023-03-25T17:00:47.076Z,19.72
2023-03-25T17:03:19.217Z,19.76
2023-03-25T17:06:29.669Z,19.76
2023-03-25T17:09:00.503Z,19.70
2023-03-25T17:11:31.597Z,19.67
2023-03-25T17:14:09.213Z,19.70
2023-03-25T17:16:39.489Z,19.68
2023-03-25T17:19:09.511Z,19.72
2023-03-25T17:21:40.138Z,19.75
2023-03-25T17:24:25.973Z,19.76
2023-03-25T17:27:50.420Z,19.76
2023-03-25T17:30:43.286Z,19.75
2023-03-25T17:33:15.238Z,19.77
2023-03-25T17:35:45.582Z,19.73
2023-03-25T17:38:19.560Z,19.70
2023-03-25T17:40:49.199Z,19.75
2023-03-25T17:43:21.944Z,19.69
2023-03-25T17:45:51.562Z,19.68
2023-03-25T17:48:21.331Z,19.75
2023-03-25T17:50:55.065Z,19.69
2023-03-25T17:53:24.796Z,19.68
2023-03-25T17:55:54.555Z,19.72
2023-03-25T17:58:24.620Z,19.71
2023-03-25T18:00:54.579Z,19.69
2023-03-25T18:03:25.415Z,19.68
2023-03-25T18:05:55.628Z,19.69
2023-03-25T18:08:26.277Z,19.65
2023-03-25T18:10:56.486Z,19.66
2023-03-25T18:13:26.553Z,19.67
2023-03-25T18:15:56.779Z,19.66
2023-03-25T18:18:28.092Z,19.74
2023-03-25T18:21:05.353Z,19.66
2023-03-25T18:23:34.980Z,19.65
2023-03-25T18:26:06.240Z,19.67
2023-03-25T18:28:37.439Z,19.72
2023-03-25T18:31:07.197Z,19.67
2023-03-25T18:33:36.965Z,19.66
2023-03-25T18:36:07.459Z,19.68
2023-03-25T18:38:37.144Z,19.61
2023-03-25T18:41:07.421Z,19.66
2023-03-25T18:43:37.018Z,19.68
2023-03-25T18:46:07.061Z,19.62
2023-03-25T18:48:37.046Z,19.59
2023-03-25T18:51:07.061Z,19.61
2023-03-25T18:53:37.474Z,19.60
2023-03-25T18:56:08.736Z,19.60
2023-03-25T18:58:38.643Z,19.60
2023-03-25T19:01:11.847Z,19.63
2023-03-25T19:03:41.503Z,19.60
2023-03-25T19:06:13.290Z,19.61
2023-03-25T19:08:46.422Z,19.62
2023-03-25T19:11:21.850Z,19.62
2023-03-25T19:13:52.808Z,19.56
2023-03-25T19:16:23.134Z,19.60
2023-03-25T19:18:52.834Z,19.59
2023-03-25T19:21:22.565Z,19.63
2023-03-25T19:23:53.616Z,19.60
2023-03-25T19:26:23.286Z,19.58
2023-03-25T19:28:53.247Z,19.56
2023-03-25T19:31:22.964Z,19.56
2023-03-25T19:33:53.596Z,19.53
2023-03-25T19:36:24.696Z,19.52
2023-03-25T19:39:06.946Z,19.56
2023-03-25T19:41:43.632Z,19.52
2023-03-25T19:44:13.260Z,19.52
2023-03-25T19:46:43.023Z,19.51
2023-03-25T19:49:12.849Z,19.55
2023-03-25T19:51:44.604Z,19.54
2023-03-25T19:54:16.749Z,19.55
2023-03-25T19:56:46.546Z,19.49
2023-03-25T19:59:18.831Z,19.56
2023-03-25T20:01:48.522Z,19.51
2023-03-25T20:04:18.272Z,19.58
2023-03-25T20:06:47.957Z,19.58
2023-03-25T20:09:17.675Z,19.52
2023-03-25T20:11:47.418Z,19.54
2023-03-25T20:14:18.215Z,19.53
2023-03-25T20:16:47.853Z,19.52
2023-03-25T20:19:17.565Z,19.52
2023-03-25T20:21:47.274Z,19.49
2023-03-25T20:24:16.953Z,19.50
2023-03-25T20:26:46.834Z,19.51
2023-03-25T20:29:19.145Z,19.46
2023-03-25T20:31:49.065Z,19.51
2023-03-25T20:34:18.744Z,19.50
2023-03-25T20:36:49.720Z,19.47
2023-03-25T20:39:19.425Z,19.47
2023-03-25T20:41:49.109Z,19.45
2023-03-25T20:44:19.140Z,19.45
2023-03-25T20:46:48.899Z,19.46
2023-03-25T20:49:21.327Z,19.47
2023-03-25T20:51:52.505Z,19.49
2023-03-25T20:54:22.369Z,19.44
2023-03-25T20:56:53.292Z,19.46
2023-03-25T20:59:22.941Z,19.46
2023-03-25T21:01:55.055Z,19.45
2023-03-25T21:04:24.876Z,19.45
2023-03-25T21:06:54.843Z,19.46
2023-03-25T21:09:24.519Z,19.49
2023-03-25T21:11:54.141Z,19.44
2023-03-25T21:14:23.728Z,19.46
2023-03-25T21:16:55.631Z,19.48
2023-03-25T21:19:25.914Z,19.51
2023-03-25T21:21:57.061Z,19.48
2023-03-25T21:24:26.675Z,19.43
2023-03-25T21:26:56.360Z,19.48
2023-03-25T21:29:25.979Z,19.48
2023-03-25T21:31:55.725Z,19.46
2023-03-25T21:34:26.467Z,19.45
2023-03-25T21:36:56.080Z,19.46
2023-03-25T21:39:25.737Z,19.44
2023-03-25T21:41:55.448Z,19.45
2023-03-25T21:44:25.094Z,19.46
2023-03-25T21:46:55.854Z,19.48
2023-03-25T21:49:25.712Z,19.45
2023-03-25T21:51:58.553Z,19.45
2023-03-25T21:54:28.206Z,19.48
2023-03-25T21:56:57.936Z,19.48
2023-03-25T21:59:27.665Z,19.43
2023-03-25T22:01:57.605Z,19.41
2023-03-25T22:04:27.482Z,19.39
2023-03-25T22:06:59.888Z,19.42
2023-03-25T22:09:29.883Z,19.40
2023-03-25T22:11:59.474Z,19.39
2023-03-25T22:14:29.154Z,19.39
2023-03-25T22:16:58.900Z,19.34
2023-03-25T22:19:28.567Z,19.35
2023-03-25T22:21:58.176Z,19.38
2023-03-25T22:24:30.500Z,19.37
2023-03-25T22:27:00.365Z,19.35
2023-03-25T22:29:30.069Z,19.35
2023-03-25T22:31:59.708Z,19.35
2023-03-25T22:34:30.237Z,19.33
2023-03-25T22:36:59.890Z,19.31
2023-03-25T22:39:29.987Z,19.33
2023-03-25T22:42:00.073Z,19.32
2023-03-25T22:44:29.915Z,19.34
2023-03-25T22:46:59.565Z,19.33
2023-03-25T22:49:29.290Z,19.36
2023-03-25T22:51:58.994Z,19.32
2023-03-25T22:54:28.750Z,19.38
2023-03-25T22:56:58.533Z,19.35
2023-03-25T22:59:28.199Z,19.38
2023-03-25T23:01:58.161Z,19.37
2023-03-25T23:04:27.819Z,19.36
2023-03-25T23:07:07.126Z,19.42
2023-03-25T23:09:43.700Z,19.36
2023-03-25T23:12:13.934Z,19.38
2023-03-25T23:14:44.629Z,19.40
2023-03-25T23:17:14.253Z,19.38
2023-03-25T23:19:44.031Z,19.40
2023-03-25T23:22:13.619Z,19.43
2023-03-25T23:24:43.710Z,19.44
2023-03-25T23:27:13.704Z,19.39
2023-03-25T23:29:43.386Z,19.45
2023-03-25T23:32:13.332Z,19.44
2023-03-25T23:34:43.010Z,19.48
2023-03-25T23:37:12.801Z,19.45
2023-03-25T23:39:43.503Z,19.45
2023-03-25T23:42:35.527Z,19.45
2023-03-25T23:45:06.084Z,19.46
2023-03-25T23:47:35.851Z,19.45
2023-03-25T23:50:05.625Z,19.48
2023-03-25T23:52:35.632Z,19.52
2023-03-25T23:55:05.342Z,19.55
2023-03-25T23:57:35.075Z,19.55
